Nor Easter — V7HF2 — position and weather

sailwx.info

Track history (hours):
 
Tides and Currents Weather Stations Pressure Air Temp Water Temp Dewpoint Dewpoint Depression Visibility Wind Speed Wind Dir Waves Ship Positions

Nor Easter

Last reported at 2014-Jul-23 04:06 UTC. Time now 2014-Jul-23 16:17 UTC.
Position N 43°39' W 070°16'.

Length 181 m; draft 7.8 m.

Type: Ship. MMSI: 538002219.

Date/timePositionNaut miles runAvg speedWind from/ knotsBaromVisibWave heightAir tempDewpointWater temp
2014-Jul-23 04:06N 43°39' W 070°16'3 4.8
2014-Jul-23 03:28N 43°38' W 070°12'1011.3
2014-Jul-23 02:33N 43°37' W 069°58'  
2014-Jul-18 07:14N 43°12' W 070°10'912.9
2014-Jul-18 06:33N 43°06' W 070°19'1612.7
2014-Jul-18 05:17N 43°02' W 070°40'5 7.0
2014-Jul-18 04:32N 43°05' W 070°45'1 0.0
2014-Jul-17 11:33N 43°05' W 070°46'0 0.0
2014-Jul-17 10:03N 43°05' W 070°46'0 0.0
2014-Jul-17 09:30N 43°05' W 070°46'3 3.7
2014-Jul-17 08:33N 43°03' W 070°42'3 1.3
2014-Jul-17 06:32N 43°01' W 070°40'0 0.0
2014-Jul-17 05:32N 43°01' W 070°40'0 0.1
2014-Jul-17 04:32N 43°01' W 070°40'0 0.1
2014-Jul-17 03:31N 43°01' W 070°40'0 0.0
2014-Jul-17 02:32N 43°01' W 070°40'0 0.0
2014-Jul-17 01:32N 43°01' W 070°40'0 0.1
2014-Jul-17 00:25N 43°01' W 070°40'0 0.1
2014-Jul-16 23:32N 43°01' W 070°40'0 0.0
2014-Jul-16 16:07N 43°01' W 070°40'0 0.0
2014-Jul-16 15:28N 43°01' W 070°40'0 0.0
2014-Jul-16 10:31N 43°01' W 070°40'0 0.0
2014-Jul-16 03:33N 43°01' W 070°40'0 0.0
2014-Jul-16 02:33N 43°01' W 070°40'0 0.1
2014-Jul-16 00:33N 43°01' W 070°40'  
Track history (hours):
 
Tides and Currents Weather Stations Pressure Air Temp Water Temp Dewpoint Dewpoint Depression Visibility Wind Speed Wind Dir Waves Ship Positions

Nor Easter

Last reported at 2014-Jul-23 04:06 UTC. Time now 2014-Jul-23 16:17 UTC.
Position N 43°39' W 070°16'.

Length 181 m; draft 7.8 m.

Type: Ship. MMSI: 538002219.

Date/timePositionNaut miles runAvg speedWind from/ knotsBaromVisibWave heightAir tempDewpointWater temp
2014-Jul-23 04:06N 43°39' W 070°16'3 4.8
2014-Jul-23 03:28N 43°38' W 070°12'1011.3
2014-Jul-23 02:33N 43°37' W 069°58'  
2014-Jul-18 07:14N 43°12' W 070°10'912.9
2014-Jul-18 06:33N 43°06' W 070°19'1612.7
2014-Jul-18 05:17N 43°02' W 070°40'5 7.0
2014-Jul-18 04:32N 43°05' W 070°45'1 0.0
2014-Jul-17 11:33N 43°05' W 070°46'0 0.0
2014-Jul-17 10:03N 43°05' W 070°46'0 0.0
2014-Jul-17 09:30N 43°05' W 070°46'3 3.7
2014-Jul-17 08:33N 43°03' W 070°42'3 1.3
2014-Jul-17 06:32N 43°01' W 070°40'0 0.0
2014-Jul-17 05:32N 43°01' W 070°40'0 0.1
2014-Jul-17 04:32N 43°01' W 070°40'0 0.1
2014-Jul-17 03:31N 43°01' W 070°40'0 0.0
2014-Jul-17 02:32N 43°01' W 070°40'0 0.0
2014-Jul-17 01:32N 43°01' W 070°40'0 0.1
2014-Jul-17 00:25N 43°01' W 070°40'0 0.1
2014-Jul-16 23:32N 43°01' W 070°40'0 0.0
2014-Jul-16 16:07N 43°01' W 070°40'0 0.0
2014-Jul-16 15:28N 43°01' W 070°40'0 0.0
2014-Jul-16 10:31N 43°01' W 070°40'0 0.0
2014-Jul-16 03:33N 43°01' W 070°40'0 0.0
2014-Jul-16 02:33N 43°01' W 070°40'0 0.1
2014-Jul-16 00:33N 43°01' W 070°40'  

Dump ship's entire track history